Time;durP1;ratioP1;P1;durP2;ratioP2;P2;SDS_P1;SDS_P2;PMS_P1;PMS_P2;Temp;Humidity;BMP_temperature;BMP_pressure;BME280_temperature;BME280_humidity;BME280_pressure;Samples;Min_cycle;Max_cycle;Signal;HPM_P1;HPM_P2
2024/03/31 00:01:21;;;;;;;61.80;32.92;;;;;;;10.95;100.00;99940.91;10087653;28;20047;-70
2024/03/31 00:06:16;;;;;;;50.33;30.77;;;;;;;10.84;100.00;99945.22;10085782;28;20063;-70
2024/03/31 00:11:12;;;;;;;53.08;34.08;;;;;;;10.74;100.00;99952.72;10078375;28;20055;-71
2024/03/31 00:16:08;;;;;;;47.35;32.20;;;;;;;10.66;100.00;99950.88;10081432;28;20055;-71
2024/03/31 00:21:03;;;;;;;55.53;29.73;;;;;;;10.64;100.00;99958.59;10077352;28;20463;-71
2024/03/31 00:25:59;;;;;;;57.53;33.38;;;;;;;10.56;100.00;99956.75;10096662;28;20051;-71
2024/03/31 00:30:56;;;;;;;48.30;30.48;;;;;;;10.48;100.00;99976.75;10076220;28;20051;-71
2024/03/31 00:35:56;;;;;;;42.72;28.88;;;;;;;10.30;100.00;99968.72;10093145;28;20070;-72
2024/03/31 00:40:51;;;;;;;51.90;30.08;;;;;;;10.34;100.00;99960.63;10078566;28;20470;-71
2024/03/31 00:45:47;;;;;;;41.55;26.90;;;;;;;10.19;100.00;99964.75;10079224;28;20078;-71
2024/03/31 00:50:42;;;;;;;29.25;22.63;;;;;;;10.16;100.00;99959.94;10089858;28;20039;-71
2024/03/31 00:55:38;;;;;;;24.02;17.15;;;;;;;10.05;100.00;99975.16;10095810;28;20043;-71
2024/03/31 01:00:34;;;;;;;20.58;17.27;;;;;;;9.90;100.00;99960.94;10095312;28;20051;-71
2024/03/31 01:05:30;;;;;;;24.13;16.00;;;;;;;9.94;100.00;99952.88;10092302;28;20066;-71
2024/03/31 01:10:26;;;;;;;22.08;16.17;;;;;;;9.82;100.00;99950.88;10072946;28;20047;-71
2024/03/31 01:15:21;;;;;;;19.88;15.45;;;;;;;9.80;100.00;99964.06;10075740;28;20055;-71
2024/03/31 01:20:17;;;;;;;20.27;15.98;;;;;;;9.71;100.00;99959.78;10096492;28;20051;-71
2024/03/31 01:25:13;;;;;;;20.38;15.25;;;;;;;9.65;100.00;99967.34;10078582;28;20051;-71
2024/03/31 01:30:09;;;;;;;20.02;14.77;;;;;;;9.65;100.00;99961.91;10090528;28;20048;-71
2024/03/31 01:35:04;;;;;;;21.58;16.15;;;;;;;9.56;100.00;99966.59;10105126;28;20428;-71
2024/03/31 01:40:00;;;;;;;20.70;16.02;;;;;;;9.52;100.00;99957.50;10099316;28;20089;-71
2024/03/31 01:44:55;;;;;;;20.13;15.10;;;;;;;9.39;100.00;99943.72;10071254;28;20050;-71
2024/03/31 01:49:51;;;;;;;21.00;15.80;;;;;;;9.36;100.00;99949.84;10090984;28;20047;-71
2024/03/31 01:54:46;;;;;;;20.95;16.08;;;;;;;9.34;100.00;99973.94;10073296;28;20051;-71
2024/03/31 01:59:42;;;;;;;22.13;15.93;;;;;;;9.18;100.00;99968.22;10080580;28;20047;-71
2024/03/31 02:04:38;;;;;;;24.65;15.40;;;;;;;9.13;100.00;99962.94;10071159;28;20039;-71
2024/03/31 02:09:33;;;;;;;22.30;16.90;;;;;;;9.15;100.00;99976.25;10076977;28;20043;-71
2024/03/31 02:14:29;;;;;;;22.83;16.92;;;;;;;8.93;100.00;99975.34;10072437;28;20035;-71
2024/03/31 02:19:24;;;;;;;26.60;17.38;;;;;;;8.78;100.00;99967.69;10093189;28;20059;-71
2024/03/31 02:24:20;;;;;;;21.95;17.17;;;;;;;8.75;100.00;99962.88;10089017;28;20606;-71
2024/03/31 02:29:15;;;;;;;24.40;16.23;;;;;;;8.68;100.00;99957.13;10071571;28;20047;-71
2024/03/31 02:34:11;;;;;;;26.98;16.30;;;;;;;8.63;100.00;99956.19;10087091;28;20047;-71
2024/03/31 02:39:06;;;;;;;29.13;17.83;;;;;;;8.58;100.00;99964.50;10087467;28;20538;-71
2024/03/31 02:44:02;;;;;;;24.40;17.98;;;;;;;8.56;100.00;99961.31;10087153;28;20414;-71
2024/03/31 02:48:57;;;;;;;23.95;17.25;;;;;;;8.57;100.00;99957.47;10067330;28;20407;-71
2024/03/31 02:53:53;;;;;;;23.50;16.35;;;;;;;8.72;100.00;99947.19;10086908;28;20396;-72
2024/03/31 02:58:48;;;;;;;31.48;18.67;;;;;;;8.56;100.00;99961.31;10088787;28;20531;-71
2024/03/31 03:03:44;;;;;;;28.48;19.40;;;;;;;8.52;100.00;99960.34;10088427;28;20062;-72
2024/03/31 03:08:40;;;;;;;30.60;19.40;;;;;;;8.48;100.00;99970.28;10055891;28;20052;-71
2024/03/31 03:13:36;;;;;;;27.35;18.60;;;;;;;8.53;100.00;99964.69;10043006;28;20040;-71
2024/03/31 03:18:31;;;;;;;29.73;19.02;;;;;;;8.50;100.00;99978.94;10063416;28;20127;-71
2024/03/31 03:23:27;;;;;;;33.78;20.13;;;;;;;8.44;100.00;99977.50;10083295;28;20053;-70
2024/03/31 03:28:23;;;;;;;29.15;18.27;;;;;;;8.48;100.00;99962.13;10078491;28;20675;-71
2024/03/31 03:33:18;;;;;;;28.20;19.35;;;;;;;8.35;100.00;99965.78;10084671;28;20081;-71
2024/03/31 03:38:14;;;;;;;31.42;18.90;;;;;;;8.32;100.00;99950.09;10073088;28;20512;-72
2024/03/31 03:43:10;;;;;;;33.75;19.73;;;;;;;8.43;100.00;99945.94;10083796;28;20055;-71
2024/03/31 03:48:06;;;;;;;30.40;18.83;;;;;;;8.58;100.00;99931.81;10066095;28;20047;-71
2024/03/31 03:53:01;;;;;;;34.42;20.05;;;;;;;8.44;100.00;99947.53;10072319;28;20043;-71
2024/03/31 03:57:57;;;;;;;30.25;19.50;;;;;;;8.37;100.00;99936.28;10088797;28;20138;-71
2024/03/31 04:02:52;;;;;;;38.67;20.27;;;;;;;8.27;100.00;99931.97;10071845;28;20531;-71
2024/03/31 04:07:48;;;;;;;32.50;20.83;;;;;;;8.49;100.00;99927.50;10069431;28;20508;-71
2024/03/31 04:12:43;;;;;;;35.40;21.52;;;;;;;8.42;100.00;99938.88;10069809;28;20511;-71
2024/03/31 04:17:39;;;;;;;30.88;19.30;;;;;;;8.41;100.00;99938.09;10078736;28;20115;-71
2024/03/31 04:22:34;;;;;;;26.42;18.15;;;;;;;8.46;100.00;99939.84;10089833;28;20149;-71
2024/03/31 04:27:30;;;;;;;26.52;17.98;;;;;;;8.49;100.00;99960.97;10097242;28;20118;-71
2024/03/31 04:32:25;;;;;;;25.92;16.88;;;;;;;8.63;100.00;99969.81;10098016;28;20046;-71
2024/03/31 04:37:21;;;;;;;22.20;16.33;;;;;;;8.67;100.00;99971.88;10088352;28;20054;-72
2024/03/31 04:42:17;;;;;;;23.98;17.55;;;;;;;8.46;100.00;99977.97;10074293;28;20518;-71
2024/03/31 04:47:12;;;;;;;27.15;17.88;;;;;;;8.48;100.00;99986.66;10081288;28;20082;-69
2024/03/31 04:52:08;;;;;;;23.13;17.45;;;;;;;8.61;100.00;99999.31;10078607;28;20137;-72
2024/03/31 04:57:04;;;;;;;21.77;15.75;;;;;;;8.63;100.00;100009.84;10078673;28;20055;-72
2024/03/31 05:01:59;;;;;;;23.10;16.83;;;;;;;8.58;100.00;100002.66;10080990;28;20503;-71
2024/03/31 05:06:55;;;;;;;27.67;18.30;;;;;;;8.53;100.00;100011.00;10090665;28;20043;-71
2024/03/31 05:11:50;;;;;;;22.48;16.52;;;;;;;8.55;100.00;100011.47;10065240;28;20058;-71
2024/03/31 05:16:46;;;;;;;21.45;15.52;;;;;;;8.60;100.00;100024.94;10091370;28;20046;-71
2024/03/31 05:21:41;;;;;;;23.08;16.80;;;;;;;8.58;100.00;100018.22;10091195;28;20051;-71
2024/03/31 05:26:37;;;;;;;24.77;15.98;;;;;;;8.51;100.00;100013.22;10092115;28;20050;-71
2024/03/31 05:31:32;;;;;;;24.75;17.00;;;;;;;8.55;100.00;100006.03;10079710;28;20039;-71
2024/03/31 05:36:28;;;;;;;23.30;17.17;;;;;;;8.62;100.00;100028.13;10075170;28;20050;-71
2024/03/31 05:41:23;;;;;;;21.35;16.55;;;;;;;8.55;100.00;100013.41;10090196;28;20109;-71
2024/03/31 05:46:20;;;;;;;24.55;17.80;;;;;;;8.43;100.00;100028.47;10074709;28;20050;-71
2024/03/31 05:51:17;;;;;;;21.38;16.20;;;;;;;8.43;100.00;100027.66;10094674;28;20050;-71
2024/03/31 05:56:12;;;;;;;24.95;16.50;;;;;;;8.55;100.00;100030.56;10091729;28;20058;-71
2024/03/31 06:01:08;;;;;;;26.40;16.70;;;;;;;8.70;100.00;100042.09;10074097;28;20526;-71
2024/03/31 06:06:03;;;;;;;23.05;16.60;;;;;;;8.69;100.00;100040.50;10088212;28;20118;-71
2024/03/31 06:11:01;;;;;;;24.00;18.05;;;;;;;8.81;100.00;100043.38;10072579;28;20054;-71
2024/03/31 06:15:58;;;;;;;24.52;18.23;;;;;;;8.58;100.00;100046.25;10079106;28;20066;-71
2024/03/31 06:20:53;;;;;;;24.42;17.23;;;;;;;8.85;100.00;100045.13;10087314;28;20043;-71
2024/03/31 06:25:59;;;;;;;26.20;16.92;;;;;;;8.91;100.00;100037.59;10072660;28;20051;-71
2024/03/31 06:30:54;;;;;;;24.40;17.40;;;;;;;8.76;100.00;100038.09;10068654;28;20086;-71
2024/03/31 06:35:50;;;;;;;25.88;17.08;;;;;;;8.95;100.00;100033.06;10073336;28;20093;-71
2024/03/31 06:40:45;;;;;;;18.27;15.93;;;;;;;8.86;100.00;100035.00;10089425;28;20414;-72
2024/03/31 06:45:41;;;;;;;19.73;14.68;;;;;;;8.97;100.00;100043.66;10105433;28;20426;-72
2024/03/31 06:50:36;;;;;;;17.98;14.40;;;;;;;8.64;100.00;100038.72;10077392;28;20416;-71
2024/03/31 06:55:32;;;;;;;17.45;14.20;;;;;;;8.76;100.00;100040.81;10073007;28;20130;-71
2024/03/31 07:00:27;;;;;;;17.42;13.73;;;;;;;8.86;100.00;100040.47;10089506;28;20043;-71
2024/03/31 07:05:23;;;;;;;18.50;14.38;;;;;;;8.58;100.00;100032.63;10086718;28;20070;-71
2024/03/31 07:10:18;;;;;;;17.67;13.75;;;;;;;8.87;100.00;100044.81;10071513;28;20050;-71
2024/03/31 07:15:14;;;;;;;18.45;15.18;;;;;;;8.69;100.00;100051.41;10098186;28;20055;-71
2024/03/31 07:20:10;;;;;;;16.88;14.68;;;;;;;8.82;100.00;100053.16;10092322;28;20043;-71
2024/03/31 07:25:05;;;;;;;21.02;14.60;;;;;;;8.74;100.00;100043.03;10070095;28;20071;-71
2024/03/31 07:30:01;;;;;;;17.70;13.68;;;;;;;8.82;100.00;100047.72;10100452;28;20498;-70
2024/03/31 07:34:57;;;;;;;17.33;12.93;;;;;;;8.95;100.00;100043.19;10091773;28;20059;-71
2024/03/31 07:39:52;;;;;;;16.33;12.43;;;;;;;8.99;100.00;100023.13;10091986;28;20047;-71
2024/03/31 07:44:49;;;;;;;14.48;11.77;;;;;;;8.81;100.00;99999.75;10069765;28;20043;-71
2024/03/31 07:49:44;;;;;;;16.92;13.02;;;;;;;9.01;100.00;99988.16;10069730;28;20082;-71
2024/03/31 07:54:40;;;;;;;13.85;11.77;;;;;;;8.95;100.00;99984.00;10089411;28;20566;-71
2024/03/31 07:59:36;;;;;;;17.85;14.55;;;;;;;8.82;100.00;99979.56;10078917;28;20035;-70
2024/03/31 08:04:31;;;;;;;19.58;14.30;;;;;;;8.71;100.00;99965.47;10080125;28;20578;-71
2024/03/31 08:09:27;;;;;;;17.73;13.07;;;;;;;8.63;100.00;99966.25;10097367;28;20423;-71
2024/03/31 08:14:22;;;;;;;15.88;13.75;;;;;;;8.67;100.00;99971.88;10092205;28;20699;-71
2024/03/31 08:19:18;;;;;;;17.00;12.75;;;;;;;8.66;100.00;99975.72;10077996;28;20507;-71
2024/03/31 08:24:13;;;;;;;22.15;13.98;;;;;;;8.62;100.00;99976.38;10097655;28;20069;-71
2024/03/31 08:29:09;;;;;;;17.15;13.13;;;;;;;9.01;100.00;99990.88;10075056;28;20039;-71
2024/03/31 08:34:04;;;;;;;18.25;13.70;;;;;;;8.85;100.00;99978.91;10076926;28;20055;-71
2024/03/31 08:39:00;;;;;;;18.38;13.80;;;;;;;9.11;100.00;99978.03;10091766;28;20086;-71
2024/03/31 08:43:59;;;;;;;17.55;13.55;;;;;;;9.23;100.00;99978.13;10078420;28;20058;-71
2024/03/31 08:48:55;;;;;;;18.95;14.68;;;;;;;8.96;100.00;99966.53;10075584;28;20091;-71
2024/03/31 08:53:53;;;;;;;22.38;13.93;;;;;;;8.82;100.00;99974.09;10076081;28;20418;-71
2024/03/31 08:58:48;;;;;;;20.42;15.93;;;;;;;9.13;100.00;99986.69;10078914;28;20535;-71
2024/03/31 09:03:44;;;;;;;21.08;15.05;;;;;;;9.33;100.00;100017.91;10076523;28;20047;-71
2024/03/31 09:08:39;;;;;;;20.55;14.48;;;;;;;9.26;100.00;100051.16;10078645;28;20062;-71
2024/03/31 09:13:35;;;;;;;22.20;16.48;;;;;;;9.32;100.00;100068.94;10089157;28;20061;-71
2024/03/31 09:18:30;;;;;;;20.65;14.65;;;;;;;9.42;100.00;100076.78;10081999;28;20046;-71
2024/03/31 09:23:26;;;;;;;19.95;14.23;;;;;;;9.43;100.00;100086.56;10072806;28;20047;-71
2024/03/31 09:28:22;;;;;;;20.08;15.18;;;;;;;9.45;100.00;100078.06;10074478;28;20039;-71
2024/03/31 09:33:18;;;;;;;21.15;15.00;;;;;;;9.65;100.00;100076.53;10077392;28;20051;-69
2024/03/31 09:38:13;;;;;;;20.10;14.73;;;;;;;9.74;100.00;100080.03;10090288;28;20121;-72
2024/03/31 09:43:09;;;;;;;21.52;14.80;;;;;;;9.63;100.00;100073.31;10072040;28;20082;-69
2024/03/31 09:48:09;;;;;;;22.42;15.18;;;;;;;9.65;100.00;100066.44;10052461;28;20039;-72
2024/03/31 09:53:06;;;;;;;21.33;15.15;;;;;;;9.70;100.00;100068.19;10053536;28;20043;-72
2024/03/31 09:58:08;;;;;;;19.80;14.00;;;;;;;9.77;100.00;100073.09;10053816;28;20484;-71
2024/03/31 10:03:11;;;;;;;19.20;16.63;;;;;;;9.59;100.00;100072.41;10072170;28;20523;-72
2024/03/31 10:08:10;;;;;;;22.40;16.65;;;;;;;9.60;100.00;100057.59;10082975;28;20433;-71
2024/03/31 10:13:08;;;;;;;21.23;16.23;;;;;;;9.50;100.00;100063.44;10101385;28;20050;-72
2024/03/31 10:18:05;;;;;;;19.60;14.85;;;;;;;9.57;100.00;100069.19;10079374;28;20085;-70
2024/03/31 10:23:01;;;;;;;20.52;15.73;;;;;;;9.66;100.00;100083.59;10073209;28;20075;-69
2024/03/31 10:27:58;;;;;;;21.70;15.13;;;;;;;9.56;100.00;100078.50;10088114;28;20455;-70
2024/03/31 10:32:55;;;;;;;18.58;14.63;;;;;;;9.54;100.00;100086.19;10070383;28;20796;-72
2024/03/31 10:37:51;;;;;;;16.85;14.35;;;;;;;9.59;100.00;100081.38;10089643;28;20078;-72
2024/03/31 10:42:46;;;;;;;19.17;15.23;;;;;;;9.55;100.00;100082.34;10071634;28;20054;-70
2024/03/31 10:47:43;;;;;;;19.10;15.80;;;;;;;9.67;100.00;100068.81;10091285;28;20090;-69
2024/03/31 10:52:39;;;;;;;20.60;16.50;;;;;;;9.58;100.00;100070.78;10096472;28;20078;-69
2024/03/31 10:57:36;;;;;;;22.23;16.40;;;;;;;9.63;100.00;100059.69;10072845;28;20496;-71
2024/03/31 11:02:33;;;;;;;25.20;18.88;;;;;;;9.77;100.00;100059.47;10079159;28;20047;-69
2024/03/31 11:07:31;;;;;;;24.50;19.15;;;;;;;9.73;100.00;100053.88;10072249;28;20047;-69
2024/03/31 11:12:27;;;;;;;23.52;18.88;;;;;;;9.77;100.00;100046.63;10070322;28;20072;-71
2024/03/31 11:17:24;;;;;;;26.75;21.00;;;;;;;10.15;100.00;100034.84;10086633;28;20094;-69
2024/03/31 11:22:21;;;;;;;28.45;21.20;;;;;;;10.16;100.00;100028.25;10071464;28;20067;-71
2024/03/31 11:27:18;;;;;;;24.35;18.95;;;;;;;10.62;100.00;100021.00;10085810;28;20071;-71
2024/03/31 11:32:15;;;;;;;24.77;18.52;;;;;;;11.03;100.00;100022.06;10085890;28;20112;-71
2024/03/31 11:37:12;;;;;;;19.77;16.73;;;;;;;11.71;100.00;100015.31;10089418;28;20075;-71
2024/03/31 11:42:08;;;;;;;21.83;18.10;;;;;;;11.58;100.00;100012.59;10090039;28;20530;-71
2024/03/31 11:47:06;;;;;;;22.42;19.13;;;;;;;11.55;100.00;99991.34;10093845;28;20522;-71
2024/03/31 11:52:02;;;;;;;22.38;18.88;;;;;;;11.29;100.00;99988.16;10065659;28;20075;-71
2024/03/31 11:56:58;;;;;;;22.50;18.60;;;;;;;11.09;100.00;99979.69;10074743;28;20087;-71
2024/03/31 12:01:58;;;;;;;24.42;21.45;;;;;;;10.82;100.00;99985.78;10077693;28;20474;-71
2024/03/31 12:06:54;;;;;;;24.23;19.48;;;;;;;10.66;100.00;99986.41;10087015;28;20475;-73
2024/03/31 12:11:50;;;;;;;27.88;22.20;;;;;;;10.57;100.00;99993.09;10071610;28;20040;-71
2024/03/31 12:16:46;;;;;;;26.67;21.23;;;;;;;10.62;100.00;99982.72;10080801;28;20051;-71
2024/03/31 12:21:42;;;;;;;28.55;21.42;;;;;;;10.81;100.00;99973.22;10067993;28;20051;-71
2024/03/31 12:26:37;;;;;;;23.20;18.55;;;;;;;11.08;100.00;99950.72;10069407;28;20064;-71
2024/03/31 12:31:33;;;;;;;23.42;18.27;;;;;;;11.35;100.00;99948.50;10086606;28;20047;-72
2024/03/31 12:36:29;;;;;;;22.98;18.90;;;;;;;12.08;100.00;99941.34;10071547;28;20054;-71
2024/03/31 12:41:24;;;;;;;18.13;15.75;;;;;;;12.40;100.00;99942.28;10083357;28;20540;-72
2024/03/31 12:46:20;;;;;;;15.85;14.25;;;;;;;11.90;100.00;99944.34;10074556;28;20043;-71
2024/03/31 12:51:23;;;;;;;17.98;14.18;;;;;;;13.16;100.00;99923.91;10097171;28;20059;-72
2024/03/31 12:56:19;;;;;;;14.52;13.02;;;;;;;14.26;100.00;99907.53;10074728;28;20051;-73
2024/03/31 13:01:21;;;;;;;15.02;13.48;;;;;;;14.66;100.00;99909.09;10093508;28;20137;-71
2024/03/31 13:06:17;;;;;;;15.43;13.82;;;;;;;15.26;100.00;99897.53;10094208;28;20047;-72
2024/03/31 13:11:14;;;;;;;14.50;13.10;;;;;;;14.82;100.00;99885.00;10092830;28;20066;-70
2024/03/31 13:16:10;;;;;;;15.63;13.80;;;;;;;14.52;100.00;99888.38;10085465;28;20121;-71
2024/03/31 13:21:06;;;;;;;14.50;12.52;;;;;;;14.16;100.00;99881.41;10092927;28;20257;-71
2024/03/31 13:26:02;;;;;;;14.82;13.35;;;;;;;14.31;100.00;99882.47;10074521;28;20408;-70
2024/03/31 13:30:58;;;;;;;14.38;12.88;;;;;;;14.82;100.00;99887.78;10075801;28;20051;-71
2024/03/31 13:35:54;;;;;;;14.52;12.20;;;;;;;14.77;100.00;99882.56;10090910;28;20417;-71
2024/03/31 13:40:49;;;;;;;14.82;13.25;;;;;;;15.42;100.00;99878.13;10073255;28;20511;-71
2024/03/31 13:45:45;;;;;;;15.25;13.10;;;;;;;14.82;100.00;99890.53;10090047;28;20503;-71
2024/03/31 13:50:41;;;;;;;13.25;11.95;;;;;;;15.47;100.00;99875.03;10075127;28;20047;-71
2024/03/31 13:55:36;;;;;;;12.80;11.50;;;;;;;15.22;100.00;99880.94;10095800;28;20043;-71
2024/03/31 14:00:32;;;;;;;13.07;11.18;;;;;;;15.62;100.00;99879.59;10089377;28;20618;-71
2024/03/31 14:05:30;;;;;;;11.60;10.40;;;;;;;15.32;100.00;99871.28;10086037;28;20046;-72
2024/03/31 14:10:27;;;;;;;12.75;11.45;;;;;;;14.64;100.00;99872.91;10091226;28;20043;-72
2024/03/31 14:15:25;;;;;;;13.48;12.15;;;;;;;14.65;100.00;99863.50;10093683;28;20619;-71
2024/03/31 14:20:20;;;;;;;14.00;12.38;;;;;;;14.68;100.00;99871.00;10090222;28;20495;-71
2024/03/31 14:25:16;;;;;;;14.02;11.13;;;;;;;14.49;100.00;99874.56;10078200;28;20055;-72
2024/03/31 14:30:13;;;;;;;11.60;10.50;;;;;;;14.29;100.00;99873.78;10082694;28;20121;-71
2024/03/31 14:35:08;;;;;;;16.27;11.07;;;;;;;14.01;100.00;99874.81;10081612;28;20063;-71
2024/03/31 14:40:05;;;;;;;12.43;11.13;;;;;;;13.62;100.00;99869.31;10089892;28;20525;-72
2024/03/31 14:45:01;;;;;;;13.63;12.23;;;;;;;13.41;100.00;99874.31;10089557;28;20064;-72
2024/03/31 14:49:56;;;;;;;12.02;10.82;;;;;;;13.79;100.00;99868.09;10070536;28;20067;-71
2024/03/31 14:54:52;;;;;;;11.63;10.48;;;;;;;14.04;100.00;99857.63;10073081;28;20660;-70
2024/03/31 14:59:47;;;;;;;11.55;10.45;;;;;;;14.56;100.00;99860.97;10097150;28;20397;-72
2024/03/31 15:04:43;;;;;;;13.63;10.52;;;;;;;15.04;100.00;99857.84;10070020;28;20498;-71
2024/03/31 15:09:38;;;;;;;15.73;11.38;;;;;;;15.30;100.00;99855.13;10073991;28;20069;-71
2024/03/31 15:14:34;;;;;;;14.43;10.77;;;;;;;15.11;100.00;99852.47;10074875;28;20051;-72
2024/03/31 15:19:29;;;;;;;12.30;11.10;;;;;;;14.78;100.00;99862.13;10092467;28;20047;-71
2024/03/31 15:24:25;;;;;;;15.52;10.90;;;;;;;14.85;100.00;99856.78;10089003;28;20047;-70
2024/03/31 15:29:21;;;;;;;13.23;10.98;;;;;;;14.85;100.00;99856.78;10076621;28;20043;-72
2024/03/31 15:34:16;;;;;;;13.20;11.75;;;;;;;14.65;100.00;99858.00;10090664;28;20053;-72
2024/03/31 15:39:12;;;;;;;12.60;11.40;;;;;;;14.23;100.00;99847.78;10089127;28;20045;-71
2024/03/31 15:44:08;;;;;;;13.98;11.73;;;;;;;13.82;100.00;99850.09;10107798;28;20105;-71
2024/03/31 15:49:04;;;;;;;14.43;12.52;;;;;;;13.66;100.00;99848.19;10084734;28;20516;-72
2024/03/31 15:53:59;;;;;;;14.32;12.73;;;;;;;13.80;100.00;99841.41;10069006;28;20507;-71
2024/03/31 15:58:55;;;;;;;15.25;13.45;;;;;;;13.78;100.00;99850.00;10073839;28;20066;-71
2024/03/31 16:03:50;;;;;;;16.20;13.73;;;;;;;13.83;100.00;99852.50;10081282;28;20045;-71
2024/03/31 16:08:46;;;;;;;15.13;13.52;;;;;;;13.67;100.00;99843.50;10064396;28;20054;-71
2024/03/31 16:13:41;;;;;;;15.35;13.60;;;;;;;13.50;100.00;99839.19;10086802;28;20071;-71
2024/03/31 16:18:38;;;;;;;15.65;13.60;;;;;;;13.25;100.00;99836.69;10078344;28;20071;-72
2024/03/31 16:23:33;;;;;;;15.80;14.13;;;;;;;13.27;100.00;99841.78;10080235;28;20062;-71
2024/03/31 16:28:29;;;;;;;16.30;14.27;;;;;;;13.04;100.00;99822.44;10086398;28;20039;-71
2024/03/31 16:33:24;;;;;;;17.02;14.00;;;;;;;12.79;100.00;99825.41;10057680;28;20040;-71
2024/03/31 16:38:20;;;;;;;18.77;15.63;;;;;;;12.78;100.00;99817.50;10052291;28;20044;-71
2024/03/31 16:43:15;;;;;;;17.33;15.48;;;;;;;12.60;100.00;99825.28;10037961;29;20050;-72
2024/03/31 16:48:11;;;;;;;19.10;15.25;;;;;;;12.58;100.00;99838.56;10063801;28;20043;-71
2024/03/31 16:53:07;;;;;;;18.13;15.75;;;;;;;12.41;100.00;99840.47;10095111;28;20055;-71
2024/03/31 16:58:02;;;;;;;20.13;15.70;;;;;;;12.36;100.00;99835.25;10074229;28;20035;-71
2024/03/31 17:02:58;;;;;;;19.17;16.00;;;;;;;12.34;100.00;99834.81;10086857;28;20492;-72
2024/03/31 17:07:53;;;;;;;19.52;15.85;;;;;;;12.39;100.00;99836.50;10095748;28;20127;-71
2024/03/31 17:12:49;;;;;;;20.77;16.13;;;;;;;12.28;100.00;99808.03;10073606;28;20058;-71
2024/03/31 17:17:45;;;;;;;20.08;16.95;;;;;;;12.10;100.00;99818.50;10074263;28;20053;-71
2024/03/31 17:22:41;;;;;;;18.27;16.17;;;;;;;11.89;100.00;99819.50;10091107;28;20051;-71
2024/03/31 17:27:37;;;;;;;18.40;16.50;;;;;;;11.69;100.00;99814.97;10091139;28;20492;-71
2024/03/31 17:32:33;;;;;;;20.13;17.15;;;;;;;11.58;100.00;99804.50;10100766;28;20106;-71
2024/03/31 17:37:28;;;;;;;19.23;16.15;;;;;;;11.47;100.00;99786.97;10073612;28;20054;-71
2024/03/31 17:42:24;;;;;;;22.63;18.45;;;;;;;11.32;100.00;99784.94;10091290;28;20520;-72
2024/03/31 17:47:19;;;;;;;21.40;17.75;;;;;;;11.13;100.00;99810.97;10092557;28;20527;-72
2024/03/31 17:52:15;;;;;;;22.33;18.00;;;;;;;10.96;100.00;99811.22;10079113;28;20049;-71
2024/03/31 17:57:10;;;;;;;25.38;18.13;;;;;;;10.83;100.00;99812.34;10079955;28;20047;-71
2024/03/31 18:02:06;;;;;;;21.27;17.45;;;;;;;10.69;100.00;99810.75;10107734;28;20054;-72
2024/03/31 18:07:01;;;;;;;24.85;19.20;;;;;;;10.55;100.00;99807.53;10065673;28;20047;-71
2024/03/31 18:11:57;;;;;;;22.40;20.02;;;;;;;10.37;100.00;99806.16;10096607;28;20047;-72
2024/03/31 18:16:52;;;;;;;24.45;19.52;;;;;;;10.25;100.00;99821.34;10091057;28;20043;-71
2024/03/31 18:21:48;;;;;;;23.02;17.73;;;;;;;10.14;100.00;99819.38;10078873;28;20061;-71
2024/03/31 18:26:44;;;;;;;22.38;19.10;;;;;;;10.03;100.00;99825.25;10088712;28;20054;-71
2024/03/31 18:31:39;;;;;;;21.88;18.83;;;;;;;9.93;100.00;99841.25;10094608;28;20043;-71
2024/03/31 18:36:35;;;;;;;23.30;19.77;;;;;;;9.79;100.00;99836.88;10108199;28;20043;-71
2024/03/31 18:41:30;;;;;;;24.92;21.38;;;;;;;9.73;100.00;99838.22;10085423;28;20392;-71
2024/03/31 18:46:26;;;;;;;26.30;20.02;;;;;;;9.61;100.00;99857.25;10089030;28;20543;-71
2024/03/31 18:51:21;;;;;;;23.88;20.25;;;;;;;9.46;100.00;99845.78;10081117;28;20046;-71
2024/03/31 18:56:18;;;;;;;25.27;19.48;;;;;;;9.46;100.00;99840.31;10091062;28;20051;-71
2024/03/31 19:01:17;;;;;;;23.45;19.65;;;;;;;9.43;100.00;99838.25;10075443;28;20074;-71
2024/03/31 19:06:13;;;;;;;26.52;19.75;;;;;;;9.39;100.00;99840.06;10076003;28;20570;-71
2024/03/31 19:11:09;;;;;;;28.25;20.70;;;;;;;9.29;100.00;99836.94;10075458;28;20089;-71
2024/03/31 19:16:06;;;;;;;26.58;20.33;;;;;;;9.27;100.00;99837.25;10069262;28;20055;-71
2024/03/31 19:21:03;;;;;;;28.52;20.67;;;;;;;9.21;100.00;99835.84;10070617;28;20067;-70
2024/03/31 19:26:03;;;;;;;23.75;19.50;;;;;;;9.20;100.00;99836.97;10086813;28;20515;-71
2024/03/31 19:30:59;;;;;;;25.27;18.42;;;;;;;9.14;100.00;99821.91;10071584;28;20094;-71
2024/03/31 19:35:54;;;;;;;26.48;21.27;;;;;;;9.10;100.00;99834.59;10069552;28;20215;-71
2024/03/31 19:40:56;;;;;;;24.58;18.98;;;;;;;9.01;100.00;99840.91;10086635;28;20047;-71
2024/03/31 19:45:52;;;;;;;27.30;19.75;;;;;;;9.00;100.00;99861.13;10068045;28;20051;-71
2024/03/31 19:50:47;;;;;;;27.20;21.05;;;;;;;8.95;100.00;99874.16;10070622;28;20051;-71
2024/03/31 19:55:51;;;;;;;26.23;19.42;;;;;;;8.85;100.00;99872.59;10079733;28;20439;-71
2024/03/31 20:00:47;;;;;;;31.45;21.60;;;;;;;8.80;100.00;99872.78;10095555;28;20095;-71
2024/03/31 20:05:52;;;;;;;28.98;19.88;;;;;;;8.72;100.00;99865.41;10096687;28;20129;-71
2024/03/31 20:10:57;;;;;;;23.33;18.23;;;;;;;8.78;100.00;99858.66;10076492;28;20641;-71
2024/03/31 20:15:52;;;;;;;21.35;18.17;;;;;;;8.79;100.00;99846.63;10097658;28;20039;-71
2024/03/31 20:20:49;;;;;;;22.35;18.20;;;;;;;8.76;100.00;99850.00;10094094;28;20058;-71
2024/03/31 20:25:45;;;;;;;23.58;17.60;;;;;;;8.76;100.00;99856.25;10076618;28;20089;-71
2024/03/31 20:30:41;;;;;;;29.35;19.80;;;;;;;8.69;100.00;99861.41;10077694;28;20054;-71
2024/03/31 20:35:37;;;;;;;25.92;19.90;;;;;;;8.63;100.00;99852.63;10081143;28;20137;-72
2024/03/31 20:40:32;;;;;;;26.23;18.77;;;;;;;8.78;100.00;99847.75;10084990;28;20097;-71
2024/03/31 20:45:28;;;;;;;23.60;19.38;;;;;;;8.82;100.00;99849.50;10073810;28;20039;-71
2024/03/31 20:50:23;;;;;;;23.52;18.67;;;;;;;8.81;100.00;99841.66;10091759;28;20107;-71
2024/03/31 20:55:19;;;;;;;30.83;19.75;;;;;;;8.84;100.00;99830.91;10090149;28;20062;-71
2024/03/31 21:00:15;;;;;;;29.52;19.50;;;;;;;8.93;100.00;99828.13;10076678;28;20502;-71
2024/03/31 21:05:10;;;;;;;27.75;19.88;;;;;;;8.93;100.00;99828.13;10091322;28;20423;-71
2024/03/31 21:10:06;;;;;;;23.17;19.00;;;;;;;8.93;100.00;99838.22;10073875;28;20051;-71
2024/03/31 21:15:01;;;;;;;25.00;19.83;;;;;;;8.98;100.00;99838.03;10072612;28;20076;-71
2024/03/31 21:19:57;;;;;;;21.38;17.15;;;;;;;9.08;100.00;99834.16;10073574;28;20066;-71
2024/03/31 21:24:53;;;;;;;25.02;17.90;;;;;;;9.14;100.00;99832.81;10071579;28;20039;-71
2024/03/31 21:29:48;;;;;;;25.08;18.48;;;;;;;9.02;100.00;99809.78;10111237;28;20047;-70
2024/03/31 21:34:44;;;;;;;24.65;18.27;;;;;;;8.98;100.00;99799.88;10087296;28;20047;-71
2024/03/31 21:39:39;;;;;;;24.27;17.75;;;;;;;8.95;100.00;99792.34;10072271;28;20049;-71
2024/03/31 21:44:35;;;;;;;22.25;17.92;;;;;;;8.80;100.00;99791.78;10053731;28;1067398;-71
2024/03/31 21:49:30;;;;;;;26.48;17.80;;;;;;;8.76;100.00;99773.69;10089118;28;20039;-71
2024/03/31 21:54:27;;;;;;;27.45;18.40;;;;;;;8.71;100.00;99776.63;10094148;28;20039;-71
2024/03/31 21:59:23;;;;;;;26.10;18.30;;;;;;;8.70;100.00;99775.00;10097972;28;20719;-71
2024/03/31 22:04:18;;;;;;;24.85;17.73;;;;;;;8.68;100.00;99769.06;10071506;28;20058;-71
2024/03/31 22:09:14;;;;;;;22.60;17.00;;;;;;;8.75;100.00;99755.72;10068697;28;20501;-71
2024/03/31 22:14:09;;;;;;;24.45;17.75;;;;;;;8.68;100.00;99766.34;10088091;28;20126;-71